Date,TemperatureHighF,TemperatureAvgF,TemperatureLowF,DewpointHighF,DewpointAvgF,DewpointLowF,HumidityHigh,HumidityAvg,HumidityLow,PressureMaxIn,PressureMinIn,WindSpeedMaxMPH,WindSpeedAvgMPH,GustSpeedMaxMPH,PrecipitationSumIn
2013-1-3,0,0,-1,-17,-18,-18,43,42,41,31.76,31.75,0,0,0,0.11
2013-1-4,40,16,-4,8,-6,-19,58,39,22,31.75,31.62,9,1,9,0.11
2013-1-5,41,18,1,7,-8,-20,45,32,21,31.86,31.66,16,2,16,0.00
2013-1-6,39,15,-4,6,-10,-21,46,33,21,31.85,31.67,11,1,11,0.00
2013-1-7,41,19,3,36,-6,-21,97,33,21,31.70,31.59,6,1,6,0.00
2013-1-8,39,22,8,15,0,-21,60,40,24,31.87,31.59,14,2,14,0.00
2013-1-9,43,22,4,10,2,-7,65,44,23,31.93,31.74,11,1,11,0.00
2013-1-10,40,19,3,8,-1,-9,61,44,22,31.74,31.28,13,2,13,0.00
2013-1-11,20,10,-6,11,-6,-22,75,49,22,31.36,31.10,20,1,21,0.00
2013-1-12,15,-4,-17,-14,-24,-33,53,40,22,31.40,31.32,8,1,8,0.00
2013-1-13,14,-7,-21,-13,-24,-37,56,43,23,31.44,31.36,12,2,12,0.00
2013-1-14,17,-6,-19,-12,-24,-35,52,41,25,31.52,31.39,9,1,9,0.56
2013-1-15,19,4,-14,1,-12,-29,60,47,31,31.78,31.51,11,3,11,0.00
2013-1-16,40,21,7,19,7,-4,71,56,40,31.91,31.77,10,2,10,0.00
2013-1-17,43,19,3,14,2,-6,70,50,24,31.98,31.87,8,1,8,0.00
2013-1-18,43,22,4,7,-3,-10,58,36,21,31.90,31.79,13,3,14,0.00
2013-1-19,44,26,15,21,-5,-14,60,25,21,31.91,31.79,8,2,9,0.00
2013-1-20,44,26,9,8,-5,-19,32,25,21,31.86,31.78,13,2,13,0.00
2013-1-21,42,25,14,35,-4,-14,97,28,21,31.85,31.79,16,4,17,0.00
2013-1-22,51,29,12,28,-4,-17,97,24,21,31.93,31.82,15,2,15,0.00
2013-1-23,55,28,8,27,-5,-22,97,24,20,31.94,31.87,13,1,13,0.00
2013-1-24,46,32,16,44,11,-12,97,44,21,31.88,31.77,16,3,16,0.00
2013-1-25,44,32,25,28,23,18,77,68,51,31.83,31.73,10,2,10,0.00
2013-1-26,40,28,17,28,22,10,91,77,47,33.35,31.46,15,3,15,0.00
2013-1-27,47,30,17,30,19,5,91,66,36,31.53,31.46,20,2,20,0.09
2013-1-28,31,21,13,24,13,4,80,71,59,31.50,31.33,9,1,9,0.00
2013-1-29,20,8,-3,7,-9,-20,70,46,24,31.43,31.27,17,3,17,0.00
2013-1-30,25,11,-5,6,-3,-18,66,53,42,31.62,31.42,15,4,15,0.00
2013-1-31,34,21,13,11,5,1,69,50,26,31.78,31.60,17,3,17,0.00
2013-2-1,38,20,5,14,3,-4,75,50,24,31.85,31.68,24,4,24,0.04
2013-2-2,45,23,8,13,2,-5,65,43,21,31.92,31.84,10,3,12,0.00
2013-2-3,43,23,7,7,0,-10,51,39,21,31.88,31.64,13,2,13,0.00
2013-2-4,44,25,12,8,0,-8,55,35,21,31.70,31.62,12,4,12,0.00
2013-2-5,49,27,8,20,8,-6,65,46,27,31.76,31.63,11,2,11,0.00
2013-2-6,43,26,12,19,12,5,75,58,28,31.68,31.55,10,2,10,0.00
2013-2-7,41,20,2,36,0,-13,97,44,21,31.75,31.67,8,2,8,0.01
2013-2-8,43,20,0,19,4,-14,76,49,25,31.69,31.41,21,5,21,0.00
2013-2-9,30,20,7,18,8,-6,80,62,27,31.42,31.20,17,5,17,0.01
2013-2-10,30,12,2,2,-4,-9,62,48,23,31.48,31.27,9,2,9,0.00
2013-2-11,21,10,-2,6,-2,-14,69,59,44,31.57,31.46,13,3,13,0.00
2013-2-12,30,9,-9,1,-9,-22,60,45,23,31.67,31.56,11,3,11,0.04
2013-2-13,34,18,6,9,1,-6,63,49,32,31.69,31.61,15,4,15,0.00
2013-2-14,34,19,9,10,2,-5,67,49,25,31.73,31.62,18,3,18,0.00
2013-2-15,30,17,10,4,-1,-6,62,46,24,31.87,31.71,21,4,21,0.00
2013-2-16,43,24,12,12,1,-8,55,37,23,31.86,31.70,16,4,16,0.00
2013-2-17,48,24,4,14,-1,-14,59,35,21,31.71,31.36,20,3,20,0.00
2013-2-18,29,14,-4,7,-7,-18,67,42,21,31.65,31.36,13,3,14,0.00
2013-2-19,39,15,-9,6,-10,-25,53,34,21,31.66,31.41,15,3,15,0.00
2013-2-20,33,18,3,16,3,-12,76,53,27,31.42,31.22,11,2,11,0.00
2013-2-21,35,18,5,16,6,-5,72,59,29,31.45,31.24,11,1,11,0.09
2013-2-22,27,9,-4,5,-5,-15,66,52,32,31.54,31.44,11,2,11,0.00
2013-2-23,40,18,2,14,1,-12,70,48,27,31.52,31.29,13,3,13,0.00
2013-2-24,25,12,-1,13,1,-13,71,62,46,31.55,31.28,6,1,6,0.01
2013-2-25,37,14,-6,6,-5,-18,65,44,23,31.61,31.47,9,2,12,0.14
2013-2-26,25,12,1,8,-4,-12,63,50,25,31.64,31.39,17,3,33,0.00
2013-2-27,32,9,-10,0,-12,-24,59,40,21,31.75,31.64,16,2,17,0.00
2013-2-28,34,14,-9,5,-6,-25,62,43,23,31.79,31.75,17,3,17,0.00
2013-3-1,39,25,14,15,9,1,67,52,30,31.93,31.76,20,5,20,0.00
2013-3-2,49,31,18,22,13,8,70,50,27,31.96,31.78,13,3,13,0.00
2013-3-3,48,32,16,22,14,4,78,51,24,31.78,31.49,21,3,21,0.00
2013-3-4,43,24,0,28,13,-12,81,65,32,31.73,31.42,30,2,32,0.19
2013-3-5,50,21,-7,27,-3,-19,58,36,21,31.81,31.72,9,2,9,0.02
2013-3-6,53,30,8,15,3,-10,49,32,21,31.77,31.61,18,3,18,0.00
2013-3-7,53,34,18,15,6,-5,50,32,21,31.69,31.63,15,2,15,0.00
2013-3-8,45,28,14,23,12,-2,82,54,28,31.68,31.38,17,3,17,0.00
2013-3-9,33,23,13,24,14,0,82,69,54,31.60,31.33,7,0,7,0.06
2013-3-10,36,20,4,10,2,-8,60,47,26,31.75,31.59,15,3,15,0.04
2013-3-11,43,27,14,16,9,0,67,47,27,31.74,31.65,22,5,22,0.00
2013-3-12,46,32,24,20,15,12,68,50,28,31.87,31.71,14,4,14,0.00
2013-3-13,50,34,22,23,13,5,64,44,24,31.96,31.86,17,3,17,0.00
2013-3-14,56,37,25,20,12,6,54,38,21,31.99,31.92,15,3,17,0.00
2013-3-15,60,40,22,21,16,11,65,41,21,31.93,31.72,18,3,18,0.00
2013-3-16,40,32,25,31,24,14,87,72,56,31.72,31.57,9,2,11,0.01
2013-3-17,41,25,16,27,16,6,85,69,31,31.58,31.38,26,2,26,0.01
2013-3-18,34,24,16,16,6,-3,70,46,27,31.61,31.50,23,4,23,0.02
2013-3-19,40,28,12,12,2,-12,69,33,21,31.83,31.61,17,5,17,0.00
2013-3-20,47,25,6,22,5,-13,70,44,21,31.83,31.56,15,2,15,0.00
2013-3-21,36,26,14,28,17,4,84,69,34,31.56,31.39,11,1,99,0.21
2013-3-22,40,21,4,12,4,-5,68,50,22,31.51,31.33,21,3,21,0.00
2013-3-23,22,13,0,8,-1,-12,70,55,27,31.58,31.34,10,2,10,0.00
2013-3-24,24,5,-11,1,-12,-24,60,47,23,31.63,31.52,19,3,19,0.00
2013-3-25,35,12,-11,0,-11,-25,56,37,21,31.72,31.62,15,2,15,0.06
2013-3-26,49,26,-1,19,6,-16,68,44,23,31.71,31.61,23,3,27,0.00
2013-3-27,50,33,20,23,13,2,79,49,21,31.76,31.64,21,2,21,0.00
2013-3-28,49,31,16,26,16,6,72,54,26,31.81,31.75,17,2,17,0.00
2013-3-29,50,33,20,29,21,14,79,64,30,31.85,31.79,25,3,25,0.00
2013-3-30,50,38,28,28,21,11,78,54,24,31.85,31.76,17,4,17,0.00
2013-3-31,54,35,16,23,14,8,80,48,21,31.82,31.72,14,3,14,0.00
2013-4-1,53,34,20,29,18,11,78,54,22,31.76,31.62,15,3,17,0.00
2013-4-2,44,30,23,28,22,18,83,73,43,31.69,31.58,14,2,14,0.00
2013-4-3,47,33,22,29,20,11,84,61,27,31.84,31.68,12,2,12,0.22
2013-4-4,54,36,20,24,17,12,75,48,22,31.85,31.78,17,3,17,0.00
2013-4-5,56,38,25,29,20,12,89,53,22,31.79,31.61,17,3,17,0.00
2013-4-6,52,36,25,28,21,10,89,59,23,31.67,31.63,16,2,17,0.08
2013-4-7,47,36,27,30,21,14,87,56,31,31.66,31.53,23,5,23,0.02
2013-4-8,48,34,23,30,22,8,89,65,21,31.55,31.27,31,5,31,0.00
2013-4-9,33,21,10,29,15,3,90,76,59,31.51,31.29,19,7,19,0.04
2013-4-10,36,20,4,16,6,-4,73,54,32,31.57,31.48,16,4,16,0.00
2013-4-11,41,29,16,23,15,3,71,57,37,31.59,31.49,18,5,18,0.00
2013-4-12,31,25,22,23,18,16,80,74,64,31.60,31.55,4,0,4,0.00
2013-4-13,51,41,31,28,19,8,86,45,22,31.83,31.31,30,7,30,0.37
2013-4-14,38,30,22,27,16,1,88,60,23,31.43,31.31,27,4,27,0.09
2013-4-15,43,26,19,33,20,12,84,78,63,31.47,31.32,23,6,23,0.04
2013-4-16,49,31,18,25,17,10,81,60,25,31.47,31.35,23,11,23,0.11
2013-4-17,40,24,13,28,14,-1,86,66,44,31.53,31.36,19,7,19,0.00
2013-4-18,27,14,4,2,-4,-12,61,45,24,31.75,31.53,16,5,16,0.00
2013-4-19,42,25,6,19,8,-7,65,50,30,31.76,31.66,13,3,13,0.00
2013-4-20,44,32,18,24,19,10,76,60,36,31.73,31.61,12,3,12,0.00
2013-4-21,47,34,21,25,19,9,80,57,23,31.76,31.69,17,3,17,0.07
2013-4-22,47,35,23,32,22,12,84,61,27,31.70,31.56,19,3,19,0.07
2013-4-23,31,21,10,20,9,-4,81,61,28,31.73,31.57,17,6,17,0.04
2013-4-24,40,23,5,16,3,-5,66,45,21,31.82,31.70,24,3,24,0.00
2013-4-25,52,35,14,18,11,3,64,41,22,31.81,31.66,19,3,19,0.00
2013-4-26,54,38,21,18,14,8,66,40,21,31.93,31.73,13,2,13,0.00
2013-4-27,57,40,20,23,15,9,72,41,21,31.93,31.84,15,-1,15,0.00
2013-4-28,62,44,25,23,18,11,63,38,20,31.87,31.73,19,4,19,0.00
2013-4-29,63,48,28,31,20,10,80,39,19,31.77,31.58,22,5,22,0.00
2013-4-30,64,51,36,26,19,13,53,30,19,31.59,31.52,27,6,27,0.00
2013-5-1,50,31,16,34,24,11,92,78,23,31.93,31.53,18,6,18,0.18
2013-5-2,38,25,10,17,9,1,83,56,24,32.00,31.93,16,4,17,0.05
2013-5-3,55,36,15,20,12,6,73,41,20,31.97,31.73,19,3,19,0.00
2013-5-4,54,38,22,31,20,13,96,54,22,31.81,31.70,17,5,17,0.00
2013-5-5,54,38,24,29,24,17,96,59,23,31.81,31.73,17,5,17,0.00
2013-5-6,51,37,29,35,28,20,95,71,45,31.78,31.67,17,3,17,0.07
2013-5-7,53,39,30,37,30,19,97,76,29,31.76,31.68,13,2,13,0.33
2013-5-8,46,34,28,35,30,26,96,87,54,31.74,31.68,9,1,9,0.39
2013-5-9,31,31,31,29,29,29,94,94,94,31.74,31.74,0,0,0,0.01
2013-5-19,62,41,30,36,26,17,91,59,26,31.69,31.62,23,-26,23,0.00
2013-5-20,54,38,29,35,29,24,93,72,33,31.77,31.65,17,4,17,0.04
2013-5-21,58,43,30,29,25,18,76,52,24,31.77,31.70,18,4,18,0.00
2013-5-22,68,48,26,33,25,19,87,48,16,31.75,31.66,16,4,16,0.00
2013-5-23,70,52,40,40,32,18,93,54,14,31.79,31.70,24,8,24,0.00
2013-5-24,71,53,36,41,27,16,99,48,14,31.83,31.74,21,4,21,0.00
2013-5-25,72,52,28,29,20,16,71,34,13,31.84,31.76,26,3,26,0.00
2013-5-26,73,53,31,28,20,10,66,33,13,31.82,31.62,19,3,19,0.00
2013-5-27,67,50,30,24,19,14,60,33,16,31.79,31.66,20,4,20,0.00
2013-5-28,66,47,27,28,21,16,71,40,17,31.70,31.52,18,3,18,0.00
2013-5-29,55,41,32,36,26,14,89,58,22,31.59,31.48,23,4,23,0.01
2013-5-30,54,43,30,29,21,14,88,45,21,31.70,31.55,22,6,22,0.00
2013-5-31,56,44,31,31,16,8,88,37,20,31.83,31.68,27,6,60,0.00
2013-6-1,64,48,32,28,20,10,57,35,19,31.90,31.82,13,4,13,0.00
2013-6-2,73,52,27,54,21,16,97,38,13,31.90,31.76,17,3,17,0.00
2013-6-3,72,54,32,33,23,18,65,36,13,31.81,31.73,30,4,30,0.00
2013-6-4,70,53,33,35,28,21,75,44,16,31.86,31.78,28,5,28,0.00
2013-6-5,71,53,34,42,29,16,97,48,14,31.87,31.78,17,4,17,0.00
2013-6-6,72,53,29,40,28,19,97,51,14,31.90,31.82,15,3,15,0.00
2013-6-7,68,51,34,40,32,26,89,54,24,31.89,31.76,16,2,16,0.00
2013-6-8,71,56,41,37,29,22,67,40,16,31.85,31.73,27,5,27,0.00
2013-6-9,80,59,36,32,27,20,75,35,13,31.91,31.84,16,4,16,0.00
2013-6-10,83,63,37,71,27,20,97,33,12,31.91,31.82,17,3,17,0.00
2013-6-11,79,61,38,33,24,17,65,29,13,31.92,31.81,23,4,23,0.00
2013-6-12,82,61,40,30,23,17,53,25,12,31.98,31.90,18,3,18,0.00
2013-6-13,79,60,40,42,28,20,67,34,14,31.95,31.70,28,4,28,0.00
2013-6-14,79,61,40,40,27,14,78,35,13,31.89,31.78,17,4,17,0.00
2013-6-15,74,56,32,34,22,14,61,30,13,31.92,31.85,16,3,19,3.71
2013-6-16,66,50,37,45,35,26,95,60,26,32.00,31.90,17,3,19,3.71
2013-6-17,71,50,32,43,34,20,99,64,15,31.96,31.87,18,2,18,0.05
2013-6-18,75,53,33,49,34,18,99,58,13,31.94,31.77,17,3,17,0.08
2013-6-19,78,56,32,39,26,9,86,41,12,31.81,31.70,20,4,20,0.00
2013-6-20,78,58,36,26,19,10,47,24,13,31.82,31.74,18,4,18,0.00
2013-6-21,78,58,34,27,21,15,57,27,13,31.83,31.76,21,4,21,0.00
2013-6-22,77,57,34,27,21,14,55,28,13,31.82,31.73,18,4,18,0.06
2013-6-23,75,54,32,30,23,17,57,33,13,31.83,31.74,23,3,23,0.06
2013-6-24,74,56,32,41,23,16,70,35,13,31.80,31.74,18,4,18,0.00
2013-6-25,77,61,41,54,24,16,50,26,15,31.94,31.77,27,4,27,0.00
2013-6-26,84,62,37,36,30,25,75,36,13,32.02,31.93,29,2,29,0.00
2013-6-27,86,67,42,38,31,24,64,31,12,32.10,32.01,11,3,11,0.00
2013-6-28,86,66,45,81,35,23,97,38,12,32.11,32.01,18,4,18,0.00
2013-6-29,82,58,44,47,41,30,87,58,17,32.06,31.96,16,3,16,0.00
2013-6-30,77,56,39,51,42,32,99,68,22,32.02,31.93,17,4,17,0.11
2013-7-1,79,57,37,48,39,-5,99,62,13,32.02,31.78,17,4,17,0.02
2013-7-2,78,58,39,47,37,24,99,55,14,32.04,31.91,20,4,20,0.00
2013-7-3,78,56,37,46,36,22,99,56,15,32.01,31.84,20,4,20,0.00
2013-7-4,81,60,41,44,37,27,84,49,14,31.91,31.80,15,3,15,0.00
2013-7-5,77,60,47,51,45,-9,95,61,26,31.87,31.38,15,3,15,0.07
2013-7-6,80,62,46,52,45,-12,99,63,20,31.91,31.25,21,4,21,0.08
2013-7-7,78,59,44,52,45,38,99,66,25,31.97,31.86,15,3,15,0.19
2013-7-8,78,60,42,53,42,31,99,61,22,32.02,31.96,15,3,15,0.30
2013-7-9,82,62,42,49,38,5,84,46,14,32.06,31.29,11,3,11,0.01
2013-7-10,77,60,46,55,45,39,89,61,28,32.05,31.92,17,3,17,0.19
2013-7-11,85,63,42,52,43,-8,99,55,16,31.99,31.49,20,3,20,0.00
2013-7-12,78,60,49,53,47,40,92,66,30,31.95,31.88,19,2,19,0.04
2013-7-13,82,62,48,53,47,39,99,63,23,31.99,31.91,15,3,15,0.00
2013-7-14,76,57,44,54,47,40,99,75,33,32.00,31.94,14,2,14,0.53
2013-7-15,69,53,46,55,50,46,99,92,56,32.00,31.91,20,4,20,0.69
2013-7-16,74,57,44,52,46,21,99,72,33,32.02,31.88,17,6,17,0.00
2013-7-17,78,58,42,56,47,41,99,71,33,32.04,31.97,15,3,15,0.05
2013-7-18,77,54,44,53,49,44,99,84,35,32.04,31.96,12,2,12,0.18
2013-7-19,75,57,46,53,48,-9,99,76,34,32.03,31.73,17,4,17,0.00
2013-7-20,80,61,42,52,39,26,99,56,14,31.98,31.84,13,2,13,0.00
2013-7-21,82,62,42,50,35,22,98,47,12,31.91,31.85,12,2,12,0.00
2013-7-22,82,61,42,47,31,20,77,39,12,31.95,31.88,15,2,15,0.00
2013-7-23,85,64,41,39,29,21,67,32,12,31.99,31.91,13,3,13,0.00
2013-7-24,71,59,49,49,42,37,81,55,35,32.02,31.93,15,3,15,0.01
2013-7-25,72,55,44,52,45,9,99,73,33,32.04,31.65,16,2,16,0.08
2013-7-26,79,58,38,52,42,27,99,65,16,32.05,31.98,98,4,98,0.08
2013-7-27,74,55,42,50,45,33,99,75,24,32.02,31.86,15,3,15,0.20
2013-7-28,62,52,48,54,48,45,99,88,58,31.89,31.81,11,2,11,0.61
2013-7-29,68,55,44,50,45,40,98,71,43,31.99,31.85,17,3,17,0.00
2013-7-30,73,56,37,46,41,36,99,63,31,32.08,31.99,18,3,18,0.00
2013-7-31,76,58,38,46,39,30,99,57,22,32.11,32.01,10,2,10,0.00
2013-8-1,70,53,40,52,44,37,91,73,36,32.02,31.93,15,2,15,0.06
2013-8-2,78,60,42,49,43,35,99,61,24,31.96,31.89,15,3,15,0.00
2013-8-3,78,57,43,48,43,36,93,64,24,32.02,31.94,14,2,14,0.00
2013-8-4,76,55,40,56,45,34,99,74,24,32.02,31.96,16,2,16,0.14
2013-8-5,74,54,40,51,46,7,99,77,33,32.00,31.38,14,3,14,0.08
2013-8-6,74,53,41,50,45,37,99,79,29,31.98,31.89,15,2,15,0.14
2013-8-7,57,47,42,50,44,-8,99,90,60,31.96,31.54,10,1,12,0.38
2013-8-8,68,50,38,48,41,34,99,77,34,31.96,31.87,15,3,15,0.02
2013-8-9,66,50,36,47,41,35,99,74,37,32.01,31.92,12,3,12,0.02
2013-8-10,72,55,35,46,36,11,99,57,16,32.02,31.71,22,4,22,0.00
2013-8-11,73,54,38,44,37,24,99,59,16,32.00,31.92,11,2,11,0.00
2013-8-12,70,52,38,47,40,33,95,68,26,32.00,31.94,14,3,14,0.01
2013-8-13,71,52,34,45,37,27,99,64,20,32.02,31.96,18,3,18,0.05
2013-8-14,71,52,34,45,34,19,99,57,15,32.01,31.97,18,4,18,0.17
2013-8-15,76,56,34,40,29,18,88,45,13,32.01,31.96,17,4,17,0.00
2013-8-16,80,58,36,38,28,19,76,38,13,32.04,31.97,12,2,12,0.00
2013-8-17,77,59,39,39,30,21,73,39,14,32.04,31.94,11,2,11,0.00
2013-8-18,76,55,41,48,39,31,86,58,22,32.02,31.96,18,2,18,0.01
2013-8-19,81,58,38,49,40,29,99,60,15,32.02,31.94,15,3,15,0.02
2013-8-20,80,59,40,47,40,29,95,56,17,32.00,31.91,15,3,15,0.01
2013-8-21,78,58,43,50,43,34,92,64,23,32.02,31.93,15,2,15,0.05
2013-8-22,75,57,45,52,47,40,99,73,31,32.02,31.92,14,2,14,0.15
2013-8-23,53,50,46,49,48,46,99,92,85,32.00,31.96,8,3,9,0.00
2013-9-14,65,48,43,43,41,39,91,77,39,31.98,31.76,8,2,8,2.42
2013-9-15,62,46,37,49,42,36,99,88,53,31.95,31.81,16,4,16,0.11
2013-9-16,63,49,39,48,42,36,99,79,47,31.95,31.88,11,2,11,0.02
2013-9-17,71,50,34,45,37,31,99,67,25,31.93,31.77,15,2,15,0.00
2013-9-18,65,47,38,49,41,29,99,83,27,31.82,31.75,18,3,18,0.13
2013-9-19,66,46,32,45,35,23,99,71,21,31.89,31.78,21,2,21,0.06
2013-9-20,70,47,31,39,28,19,94,56,15,31.91,31.82,11,2,11,0.00
2013-9-21,70,50,32,39,30,25,84,52,20,31.88,31.74,18,3,18,0.00
2013-9-22,58,42,36,47,38,31,99,87,60,31.75,31.50,21,3,21,0.22
2013-9-23,51,39,31,36,31,26,99,74,41,31.87,31.47,21,5,21,0.26
2013-9-24,65,42,24,34,23,13,95,55,17,31.91,31.76,14,3,14,0.00
2013-9-25,67,48,26,33,24,19,89,47,16,31.76,31.52,23,5,23,0.00
2013-9-26,67,54,41,26,20,15,54,28,16,31.60,31.54,23,6,23,0.00
2013-9-27,49,40,26,40,28,19,96,65,37,31.71,31.53,18,4,18,0.07
2013-9-28,59,38,23,26,19,12,76,51,22,31.88,31.70,12,4,12,0.01
2013-9-29,64,43,25,24,19,12,77,44,18,31.86,31.76,15,3,15,0.00
2013-9-30,71,51,36,32,24,16,62,38,19,31.83,31.73,17,3,17,0.00
2013-10-1,70,48,28,32,24,17,80,46,15,31.86,31.75,15,4,15,0.00
2013-10-2,67,46,27,31,22,18,84,46,16,31.82,31.71,11,3,11,0.00
2013-10-3,63,47,29,31,22,18,70,42,19,31.71,31.49,23,5,23,0.00
2013-10-4,47,28,18,32,16,6,88,65,32,31.80,31.47,18,4,18,0.02
2013-10-5,44,28,17,18,11,3,76,52,23,31.92,31.78,16,5,16,0.02
2013-10-6,60,39,20,26,19,8,73,47,23,31.97,31.90,11,3,11,0.00
2013-10-7,70,44,23,27,20,14,78,46,15,31.96,31.81,15,2,15,0.00
2013-10-8,64,44,27,29,21,18,74,45,19,31.81,31.63,15,3,15,0.00
2013-10-9,58,42,26,29,20,12,85,47,23,31.70,31.64,23,6,23,0.00
2013-10-10,46,37,27,33,28,14,94,73,33,31.68,31.43,25,5,25,0.00
2013-10-11,43,33,27,32,26,20,91,74,53,31.76,31.49,11,2,11,0.11
2013-10-12,51,34,18,28,18,8,88,59,22,31.81,31.73,13,3,13,0.01
2013-10-13,58,38,24,35,26,17,94,69,23,31.82,31.66,17,4,17,0.02
2013-10-14,41,32,24,33,26,20,97,81,45,31.76,31.59,12,2,12,0.05
2013-10-15,39,27,18,26,21,14,95,80,46,31.77,31.70,15,4,15,0.02
2013-10-16,40,28,21,26,17,10,94,66,33,31.77,31.69,15,4,15,0.01
2013-10-17,48,31,14,19,12,6,71,49,22,31.76,31.65,18,3,18,0.00
2013-10-18,37,27,20,21,12,3,86,55,28,31.81,31.64,15,4,15,0.05
2013-10-19,49,32,18,20,12,6,66,45,23,31.81,31.73,17,3,17,0.00
2013-10-20,48,35,27,24,17,9,81,49,24,31.74,31.65,16,4,16,0.00
2013-10-21,47,32,19,23,16,9,87,58,23,31.89,31.73,13,3,13,0.04
2013-10-22,58,35,18,26,17,12,82,53,21,31.91,31.84,10,2,10,0.00
2013-10-23,60,37,21,27,16,4,81,49,20,31.90,31.84,18,3,18,0.00
2013-10-24,59,37,21,25,16,11,73,47,21,31.91,31.83,11,2,11,0.00
2013-10-25,54,36,23,30,20,14,75,56,24,31.91,31.82,14,2,14,0.00
2013-10-26,56,36,22,30,19,11,89,55,21,31.97,31.88,11,1,11,0.00
2013-10-27,54,35,21,26,15,12,77,48,21,31.88,31.65,19,2,19,0.00
2013-10-28,52,36,22,30,17,8,86,49,23,31.66,31.55,20,5,20,0.00
2013-10-29,43,34,28,30,21,9,98,61,26,31.62,31.50,21,5,21,0.00
2013-10-30,40,28,16,27,14,7,94,57,31,31.59,31.51,15,4,15,0.02
2013-10-31,34,26,21,18,14,10,78,61,43,31.67,31.56,14,4,14,0.00
2013-11-1,39,29,18,21,15,8,82,57,33,31.89,31.65,21,4,21,0.00
2013-11-2,57,30,12,18,8,-3,76,46,20,31.89,31.66,15,2,15,0.00
2013-11-3,50,34,20,23,11,2,83,41,21,31.67,31.43,24,5,24,0.00
2013-11-4,41,25,10,20,12,2,89,62,28,31.59,31.52,19,5,19,0.04
2013-11-5,31,19,8,19,5,-7,89,57,22,31.78,31.50,15,3,15,0.01
2013-11-6,35,21,8,13,5,-8,66,51,28,31.93,31.78,20,4,20,0.00
2013-11-7,53,32,14,21,13,6,72,48,23,31.97,31.78,13,2,13,0.00
2013-11-8,55,36,24,16,12,4,57,39,21,31.80,31.66,23,3,23,0.00
2013-11-9,53,34,21,19,13,8,64,44,22,31.90,31.78,12,2,12,0.00
2013-11-10,54,33,18,20,12,6,67,45,21,31.94,31.86,17,2,17,0.00
2013-11-11,52,34,22,19,12,5,65,43,22,32.04,31.91,14,3,14,0.00
2013-11-12,54,32,17,21,10,2,74,45,20,32.11,32.03,10,2,10,0.00
2013-11-13,53,32,15,15,9,1,56,40,21,32.05,31.76,11,2,11,0.00
2013-11-14,47,32,16,24,11,-3,76,45,21,31.78,31.56,10,2,10,0.00
2013-11-15,42,28,15,25,14,-1,90,60,27,31.56,31.33,17,3,17,0.00
2013-11-16,36,26,20,23,19,14,89,75,43,31.34,31.25,28,4,28,0.01
2013-11-17,42,26,19,21,14,6,85,61,33,31.77,31.34,34,5,34,0.09
2013-11-18,51,28,10,18,9,0,72,47,21,31.86,31.76,8,2,8,0.01
2013-11-19,49,28,11,24,14,2,77,59,27,31.76,31.56,14,2,14,0.00
2013-11-20,46,33,25,26,21,13,82,63,27,31.61,31.52,8,2,8,0.00
2013-11-21,36,26,15,29,22,10,94,86,70,31.81,31.56,15,5,15,0.05
2013-11-22,22,17,11,18,13,5,86,82,79,31.92,31.80,15,3,15,0.00
2013-11-23,24,19,16,19,14,12,85,81,78,31.95,31.80,16,4,16,0.00
2013-11-24,32,21,9,27,16,2,83,79,73,31.79,31.58,9,1,9,0.00
2013-11-25,44,25,14,24,15,7,81,65,42,31.84,31.60,10,3,10,0.19
2013-11-26,40,24,10,18,10,0,75,57,36,31.91,31.84,11,3,11,0.01
2013-11-27,49,24,8,19,7,-1,75,53,26,31.89,31.76,6,1,6,0.00
2013-11-28,44,23,10,19,9,2,76,56,28,31.82,31.75,11,2,11,0.00
2013-11-29,46,24,8,15,6,-2,75,51,23,31.86,31.80,11,2,11,0.00
2013-11-30,45,22,8,12,3,-4,71,48,21,31.87,31.80,11,1,11,0.00
2013-12-1,42,26,7,20,9,-4,69,50,24,31.83,31.69,17,4,17,0.00
2013-12-2,44,31,25,20,18,11,77,59,27,31.71,31.44,27,5,27,0.00
2013-12-3,31,26,24,21,18,13,85,74,48,31.44,31.17,16,6,16,0.00
2013-12-4,25,14,-6,21,8,-16,86,77,63,31.40,31.07,15,4,15,0.00
2013-12-5,13,-5,-19,5,-16,-32,73,60,48,31.40,31.30,10,1,10,0.00
2013-12-6,12,-4,-17,3,-15,-30,68,59,49,31.54,31.36,12,2,12,0.00
2013-12-7,12,4,-8,4,-6,-20,69,65,55,31.52,31.24,15,3,15,0.00
2013-12-8,14,3,-12,1,-8,-25,69,59,46,31.43,31.19,14,2,14,0.00
2013-12-9,8,-5,-15,-9,-19,-28,57,50,43,31.72,31.42,15,3,15,0.00
2013-12-10,32,13,-5,16,-1,-18,66,54,36,31.75,31.61,24,4,24,0.00
2013-12-11,36,16,-1,7,-5,-15,65,42,22,31.93,31.73,11,2,11,0.00
2013-12-12,49,19,2,14,-4,-15,49,37,21,31.93,31.69,8,1,8,0.00
2013-12-13,39,22,6,10,2,-10,59,44,23,31.72,31.55,16,4,16,0.00
2013-12-14,33,17,6,7,2,-4,66,51,31,31.87,31.71,14,3,14,0.00
2013-12-15,43,27,18,18,9,4,64,47,30,31.93,31.84,13,4,13,0.00
2013-12-16,46,29,16,20,7,-3,56,40,24,31.96,31.87,15,3,15,0.00
2013-12-17,50,30,16,14,5,-1,52,35,22,31.98,31.85,10,2,10,0.00
2013-12-18,53,30,14,15,4,-12,53,35,21,31.86,31.37,11,2,11,0.00
2013-12-19,44,32,21,19,11,2,62,43,25,31.51,31.35,20,4,20,0.00
2013-12-20,33,20,10,18,10,0,75,64,50,31.41,31.30,8,1,8,0.01
2013-12-21,24,12,-1,7,0,-11,70,59,45,31.43,31.22,10,3,10,0.00
2013-12-22,28,14,3,3,-2,-7,63,50,25,31.66,31.42,15,4,15,0.00
2013-12-23,34,22,15,11,6,1,63,51,33,31.85,31.65,15,3,15,0.00
2013-12-24,39,22,1,22,8,-12,70,57,29,31.85,31.68,21,4,21,0.00
2013-12-25,34,14,0,2,-7,-12,62,40,24,31.91,31.83,12,3,12,0.00
2013-12-26,42,20,2,10,0,-14,59,41,23,31.93,31.84,10,2,10,0.00
2013-12-27,47,23,6,20,9,-6,75,55,31,31.94,31.78,7,1,7,0.00
2013-12-28,45,26,11,22,13,4,78,60,31,31.78,31.58,12,2,12,0.00
2013-12-29,32,19,12,15,3,-10,79,53,30,31.70,31.60,10,3,10,0.02
2013-12-30,35,22,15,9,2,-3,55,43,27,31.81,31.66,15,4,15,0.00
2013-12-31,40,27,15,22,12,0,67,53,43,31.79,31.61,15,4,15,0.00
2014-1-1,34,22,9,17,6,-8,79,52,28,31.81,31.57,15,3,15,0.02
2014-1-2,43,24,8,9,1,-13,58,39,22,31.83,31.74,9,3,9,0.00